High Gate, Missouri
Current Conditions -  °F | °C
As of 1:53 PM on Tuesday 21 Oct 2014 (Local Time) from KVIH Reporting Station
Clear Clear  
Wind Chill: 70°   Ceiling: Unl
Heat Index: 70°   Visibility: 10mi
Dew Point: 43°   Wind: 9mph
Humidity: 38%   Direction: 360°N
Pressure: 30.1"   Gusts: NA
Location:  37.9936°N, 91.5964°W
Report Text: KVIH 211853Z AUTO 36008KT 10SM CLR 21/06 A3010 RMK AO2 SLP189 T02110061
Loading
Personal Weather Stations






























Interactive Weather Map New forecast layout! Learn more

10-Day Weather Forecast

Advertisements
Track Severe Weather on mobile